createdAt,value
2022-11-21T00:01:43.700Z,0.50
2022-11-21T00:04:46.559Z,0.50
2022-11-21T00:07:50.982Z,0.40
2022-11-21T00:10:53.837Z,0.43
2022-11-21T00:13:56.804Z,0.40
2022-11-21T00:16:59.666Z,0.53
2022-11-21T00:20:02.554Z,0.43
2022-11-21T00:23:06.931Z,0.40
2022-11-21T00:26:11.651Z,0.50
2022-11-21T00:29:14.494Z,0.40
2022-11-21T00:32:17.491Z,0.40
2022-11-21T00:35:20.605Z,0.30
2022-11-21T00:38:25.189Z,0.40
2022-11-21T00:41:28.083Z,0.50
2022-11-21T00:44:30.970Z,0.60
2022-11-21T00:47:33.851Z,0.60
2022-11-21T00:50:36.772Z,0.40
2022-11-21T00:53:41.211Z,0.40
2022-11-21T00:56:44.093Z,0.30
2022-11-21T00:59:46.962Z,0.40
2022-11-21T01:02:49.843Z,0.60
2022-11-21T01:05:52.825Z,0.40
2022-11-21T01:08:57.090Z,0.53
2022-11-21T01:11:59.980Z,0.67
2022-11-21T01:15:02.838Z,0.50
2022-11-21T01:18:05.784Z,0.70
2022-11-21T01:21:13.591Z,0.60
2022-11-21T01:24:17.810Z,0.60
2022-11-21T01:27:20.671Z,0.80
2022-11-21T01:30:23.567Z,0.50
2022-11-21T01:33:26.434Z,0.50
2022-11-21T01:36:30.837Z,0.40
2022-11-21T01:39:35.111Z,0.67
2022-11-21T01:42:51.084Z,0.50
2022-11-21T01:45:57.452Z,0.60
2022-11-21T01:49:04.102Z,0.90
2022-11-21T01:52:11.909Z,0.60
2022-11-21T01:55:16.350Z,0.60
2022-11-21T01:58:19.706Z,0.57
2022-11-21T02:01:22.712Z,0.60
2022-11-21T02:04:29.491Z,0.60
2022-11-21T02:07:36.020Z,0.70
2022-11-21T02:10:47.860Z,0.43
2022-11-21T02:13:50.748Z,0.60
2022-11-21T02:16:57.993Z,0.87
2022-11-21T02:20:03.025Z,0.77
2022-11-21T02:23:18.635Z,0.40
2022-11-21T02:26:22.946Z,0.63
2022-11-21T02:29:26.283Z,0.50
2022-11-21T02:32:35.619Z,1.03
2022-11-21T02:35:38.659Z,0.60
2022-11-21T02:38:41.603Z,0.63
2022-11-21T02:41:53.823Z,0.70
2022-11-21T02:45:04.120Z,0.70
2022-11-21T02:48:07.432Z,0.80
2022-11-21T02:51:10.290Z,0.63
2022-11-21T02:54:13.167Z,0.90
2022-11-21T02:57:17.427Z,0.73
2022-11-21T03:00:21.428Z,0.70
2022-11-21T03:03:24.371Z,0.70
2022-11-21T03:06:27.269Z,0.60
2022-11-21T03:09:30.144Z,0.50
2022-11-21T03:12:36.881Z,0.87
2022-11-21T03:15:39.760Z,0.50
2022-11-21T03:18:42.640Z,0.40
2022-11-21T03:21:45.512Z,0.63
2022-11-21T03:24:48.391Z,0.77
2022-11-21T03:27:54.280Z,0.67
2022-11-21T03:30:57.149Z,0.70
2022-11-21T03:34:00.292Z,0.60
2022-11-21T03:37:03.416Z,0.70
2022-11-21T03:40:07.631Z,0.60
2022-11-21T03:43:11.866Z,0.40
2022-11-21T03:46:14.743Z,0.50
2022-11-21T03:49:18.042Z,0.43
2022-11-21T03:52:20.957Z,0.57
2022-11-21T03:55:23.802Z,0.63
2022-11-21T03:58:28.280Z,0.53
2022-11-21T04:01:36.211Z,0.53
2022-11-21T04:04:39.639Z,0.80
2022-11-21T04:07:42.574Z,0.47
2022-11-21T04:10:48.071Z,0.47
2022-11-21T04:13:52.542Z,0.53
2022-11-21T04:16:55.412Z,0.50
2022-11-21T04:19:58.351Z,0.50
2022-11-21T04:23:01.189Z,0.60
2022-11-21T04:26:04.216Z,0.60
2022-11-21T04:29:08.649Z,0.60
2022-11-21T04:32:11.505Z,0.80
2022-11-21T04:35:14.362Z,0.60
2022-11-21T04:38:17.269Z,0.60
2022-11-21T04:41:20.141Z,0.83
2022-11-21T04:44:24.364Z,0.73
2022-11-21T04:47:27.238Z,0.80
2022-11-21T04:50:30.126Z,1.00
2022-11-21T04:53:32.979Z,1.20
2022-11-21T04:56:36.518Z,0.80
2022-11-21T04:59:40.933Z,0.67
2022-11-21T05:02:44.133Z,0.80
2022-11-21T05:05:47.196Z,0.77
2022-11-21T05:08:52.868Z,1.93
2022-11-21T05:12:14.607Z,0.70
2022-11-21T05:15:24.249Z,0.73
2022-11-21T05:18:27.905Z,0.80
2022-11-21T05:21:30.788Z,0.63
2022-11-21T05:24:33.681Z,0.80
2022-11-21T05:27:36.528Z,0.60
2022-11-21T05:30:40.753Z,1.73
2022-11-21T05:33:44.048Z,0.80
2022-11-21T05:36:46.913Z,1.07
2022-11-21T05:39:49.799Z,0.73
2022-11-21T05:43:10.074Z,1.07
2022-11-21T05:46:15.350Z,0.60
2022-11-21T05:49:18.231Z,0.67
2022-11-21T05:52:21.093Z,0.70
2022-11-21T05:55:24.152Z,0.80
2022-11-21T05:58:27.263Z,0.57
2022-11-21T06:01:49.122Z,1.00
2022-11-21T06:04:51.998Z,1.30
2022-11-21T06:07:54.863Z,1.03
2022-11-21T06:10:57.979Z,1.90
2022-11-21T06:14:00.843Z,1.93
2022-11-21T06:17:05.112Z,0.50
2022-11-21T06:20:09.471Z,0.50
2022-11-21T06:23:12.605Z,0.90
2022-11-21T06:26:17.344Z,0.70
2022-11-21T06:29:22.151Z,0.60
2022-11-21T06:32:26.394Z,0.77
2022-11-21T06:35:29.281Z,1.60
2022-11-21T06:38:32.191Z,1.00
2022-11-21T06:41:35.110Z,1.40
2022-11-21T06:44:37.979Z,0.80
2022-11-21T06:47:42.202Z,0.57
2022-11-21T06:50:45.067Z,0.80
2022-11-21T06:53:48.861Z,0.60
2022-11-21T06:56:55.509Z,1.47
2022-11-21T06:59:58.380Z,1.70
2022-11-21T07:03:03.750Z,1.10
2022-11-21T07:06:07.759Z,1.80
2022-11-21T07:09:32.296Z,1.87
2022-11-21T07:12:51.168Z,1.00
2022-11-21T07:15:55.463Z,1.43
2022-11-21T07:19:00.306Z,2.23
2022-11-21T07:22:03.223Z,1.47
2022-11-21T07:25:06.761Z,1.37
2022-11-21T07:28:10.306Z,0.90
2022-11-21T07:31:14.200Z,0.70
2022-11-21T07:34:18.705Z,0.90
2022-11-21T07:37:21.619Z,0.63
2022-11-21T07:40:24.556Z,0.30
2022-11-21T07:43:27.454Z,0.50
2022-11-21T07:46:30.318Z,0.60
2022-11-21T07:49:34.680Z,0.33
2022-11-21T07:52:37.897Z,0.50
2022-11-21T07:55:41.186Z,0.40
2022-11-21T07:58:44.179Z,0.50
2022-11-21T08:01:47.684Z,0.40
2022-11-21T08:04:52.492Z,0.50
2022-11-21T08:07:56.312Z,0.57
2022-11-21T08:10:59.222Z,0.70
2022-11-21T08:14:02.113Z,0.40
2022-11-21T08:17:05.644Z,0.50
2022-11-21T08:20:11.712Z,0.43
2022-11-21T08:23:14.684Z,0.77
2022-11-21T08:26:17.591Z,1.10
2022-11-21T08:29:20.508Z,0.70
2022-11-21T08:32:23.396Z,1.13
2022-11-21T08:35:27.718Z,1.27
2022-11-21T08:38:30.596Z,1.10
2022-11-21T08:41:50.969Z,1.60
2022-11-21T08:44:53.850Z,2.63
2022-11-21T08:47:57.256Z,1.27
2022-11-21T08:51:01.562Z,1.00
2022-11-21T08:54:04.537Z,0.80
2022-11-21T08:57:07.391Z,1.03
2022-11-21T09:00:13.196Z,1.40
2022-11-21T09:03:21.462Z,0.60
2022-11-21T09:06:27.165Z,0.80
2022-11-21T09:09:30.054Z,1.20
2022-11-21T09:12:33.007Z,1.00
2022-11-21T09:15:53.443Z,1.37
2022-11-21T09:18:56.343Z,1.23
2022-11-21T09:22:01.751Z,1.73
2022-11-21T09:25:05.117Z,2.00
2022-11-21T09:28:10.252Z,1.57
2022-11-21T09:31:13.517Z,1.73
2022-11-21T09:34:16.366Z,1.90
2022-11-21T09:37:20.637Z,0.80
2022-11-21T09:40:24.069Z,1.13
2022-11-21T09:43:42.683Z,0.77
2022-11-21T09:46:48.934Z,0.70
2022-11-21T09:49:59.112Z,0.80
2022-11-21T09:53:07.935Z,0.80
2022-11-21T09:56:15.038Z,0.70
2022-11-21T09:59:30.852Z,0.50
2022-11-21T10:02:34.538Z,0.83
2022-11-21T10:05:44.793Z,0.90
2022-11-21T10:08:58.964Z,1.07
2022-11-21T10:12:28.383Z,1.40
2022-11-21T10:15:41.607Z,1.17
2022-11-21T10:19:10.482Z,1.47
2022-11-21T10:22:40.287Z,0.70
2022-11-21T10:25:51.950Z,1.40
2022-11-21T10:29:00.309Z,0.93
2022-11-21T10:32:05.795Z,1.83
2022-11-21T10:35:16.421Z,0.97
2022-11-21T10:38:22.914Z,1.17
2022-11-21T10:41:39.327Z,0.90
2022-11-21T10:44:59.815Z,0.80
2022-11-21T10:48:06.857Z,1.53
2022-11-21T10:51:24.074Z,1.00
2022-11-21T10:54:36.471Z,2.00
2022-11-21T10:57:46.324Z,1.40
2022-11-21T11:00:58.782Z,1.00
2022-11-21T11:07:40.764Z,1.23
2022-11-21T11:10:45.387Z,0.30
2022-11-21T11:13:59.220Z,0.50
2022-11-21T11:17:02.185Z,0.43
2022-11-21T11:20:08.815Z,1.07
2022-11-21T11:23:18.530Z,0.50
2022-11-21T11:26:24.545Z,0.67
2022-11-21T11:29:30.997Z,0.50
2022-11-21T11:32:34.284Z,0.90
2022-11-21T11:35:38.997Z,0.60
2022-11-21T11:38:45.014Z,0.70
2022-11-21T11:42:29.256Z,0.70
2022-11-21T11:46:04.976Z,1.63
2022-11-21T11:49:20.761Z,0.60
2022-11-21T11:52:26.710Z,0.70
2022-11-21T11:55:36.348Z,0.50
2022-11-21T11:58:45.949Z,0.90
2022-11-21T12:01:54.011Z,0.70
2022-11-21T12:05:00.884Z,1.03
2022-11-21T12:12:00.824Z,0.47
2022-11-21T12:15:31.014Z,0.60
2022-11-21T12:18:41.603Z,0.63
2022-11-21T12:21:45.996Z,0.60
2022-11-21T12:24:49.892Z,0.70
2022-11-21T12:27:56.460Z,0.50
2022-11-21T12:31:10.341Z,0.90
2022-11-21T12:34:26.188Z,0.60
2022-11-21T12:37:40.247Z,0.60
2022-11-21T12:40:57.299Z,0.83
2022-11-21T12:44:10.386Z,0.60
2022-11-21T12:47:27.182Z,0.50
2022-11-21T12:50:55.753Z,0.70
2022-11-21T12:54:24.608Z,0.50
2022-11-21T12:57:37.536Z,0.70
2022-11-21T13:00:50.632Z,0.80
2022-11-21T13:04:01.732Z,0.50
2022-11-21T13:07:07.689Z,0.43
2022-11-21T13:10:16.511Z,0.73
2022-11-21T13:13:27.272Z,0.43
2022-11-21T13:16:39.639Z,0.60
2022-11-21T13:19:52.528Z,0.70
2022-11-21T13:22:59.510Z,0.80
2022-11-21T13:26:02.505Z,1.70
2022-11-21T13:29:09.942Z,0.80
2022-11-21T13:32:39.895Z,0.70
2022-11-21T13:36:06.928Z,1.00
2022-11-21T13:39:36.078Z,0.97
2022-11-21T13:43:34.278Z,0.97
2022-11-21T13:46:59.304Z,1.10
2022-11-21T13:50:09.681Z,1.20
2022-11-21T13:53:29.112Z,0.80
2022-11-21T13:56:39.607Z,1.07
2022-11-21T13:59:57.321Z,0.50
2022-11-21T14:03:34.496Z,0.57
2022-11-21T14:06:39.595Z,0.90
2022-11-21T14:09:50.277Z,0.67
2022-11-21T14:12:56.821Z,0.60
2022-11-21T14:16:10.134Z,0.80
2022-11-21T14:19:14.823Z,0.80
2022-11-21T14:22:31.914Z,0.83
2022-11-21T14:25:43.472Z,0.80
2022-11-21T14:28:48.240Z,0.90
2022-11-21T14:31:51.613Z,0.90
2022-11-21T14:34:54.539Z,0.70
2022-11-21T14:37:59.332Z,0.80
2022-11-21T14:41:29.284Z,0.87
2022-11-21T14:44:34.439Z,0.47
2022-11-21T14:47:47.077Z,0.60
2022-11-21T14:50:50.089Z,1.00
2022-11-21T14:53:54.645Z,0.90
2022-11-21T14:57:00.507Z,0.60
2022-11-21T15:00:08.108Z,0.50
2022-11-21T15:03:20.879Z,0.63
2022-11-21T15:06:24.028Z,0.70
2022-11-21T15:12:57.325Z,1.10
2022-11-21T15:16:01.963Z,1.00
2022-11-21T15:19:10.633Z,1.20
2022-11-21T15:22:24.661Z,1.33
2022-11-21T15:25:29.784Z,1.60
2022-11-21T15:28:33.234Z,1.27
2022-11-21T15:31:37.621Z,1.30
2022-11-21T15:34:40.566Z,1.50
2022-11-21T15:37:49.568Z,2.40
2022-11-21T15:41:26.132Z,2.13
2022-11-21T15:44:29.281Z,1.53
2022-11-21T15:47:33.697Z,1.20
2022-11-21T15:50:37.973Z,1.73
2022-11-21T15:53:41.414Z,1.93
2022-11-21T15:56:44.371Z,2.13
2022-11-21T15:59:47.286Z,3.00
2022-11-21T16:02:52.024Z,4.93
2022-11-21T16:05:55.033Z,4.67
2022-11-21T16:08:58.121Z,4.23
2022-11-21T16:12:01.000Z,3.87
2022-11-21T16:15:04.004Z,4.90
2022-11-21T16:18:09.282Z,4.70
2022-11-21T16:21:12.664Z,4.90
2022-11-21T16:24:15.688Z,4.07
2022-11-21T16:27:19.061Z,3.60
2022-11-21T16:30:22.121Z,5.00
2022-11-21T16:33:27.412Z,4.27
2022-11-21T16:36:31.948Z,3.90
2022-11-21T16:39:35.233Z,3.63
2022-11-21T16:42:38.287Z,3.67
2022-11-21T16:45:41.278Z,4.07
2022-11-21T16:48:45.933Z,5.53
2022-11-21T16:51:48.918Z,4.83
2022-11-21T16:54:51.857Z,2.97
2022-11-21T16:57:57.807Z,2.80
2022-11-21T17:01:08.747Z,3.57
2022-11-21T17:04:17.178Z,2.70
2022-11-21T17:07:20.603Z,4.13
2022-11-21T17:10:23.527Z,4.63
2022-11-21T17:13:26.785Z,5.50
2022-11-21T17:16:30.104Z,6.13
2022-11-21T17:19:34.352Z,6.50
2022-11-21T17:22:38.062Z,5.50
2022-11-21T17:25:40.971Z,3.63
2022-11-21T17:28:46.050Z,3.77
2022-11-21T17:31:51.315Z,3.33
2022-11-21T17:34:55.547Z,3.17
2022-11-21T17:37:58.463Z,3.33
2022-11-21T17:41:02.216Z,2.03
2022-11-21T17:44:05.326Z,2.13
2022-11-21T17:47:08.244Z,3.03
2022-11-21T17:50:12.503Z,2.93
2022-11-21T17:53:15.371Z,3.00
2022-11-21T17:56:20.085Z,2.93
2022-11-21T17:59:22.997Z,2.43
2022-11-21T18:02:26.046Z,2.57
2022-11-21T18:05:30.381Z,3.10
2022-11-21T18:08:34.880Z,3.20
2022-11-21T18:11:40.267Z,3.57
2022-11-21T18:14:43.531Z,2.43
2022-11-21T18:17:47.041Z,2.57
2022-11-21T18:20:51.886Z,2.33
2022-11-21T18:23:55.874Z,3.20
2022-11-21T18:26:58.789Z,3.00
2022-11-21T18:30:01.673Z,2.10
2022-11-21T18:33:04.672Z,1.83
2022-11-21T18:36:10.715Z,2.63
2022-11-21T18:39:15.201Z,2.87
2022-11-21T18:42:18.472Z,2.20
2022-11-21T18:45:21.515Z,2.67
2022-11-21T18:48:24.417Z,2.27
2022-11-21T18:51:30.516Z,2.20
2022-11-21T18:54:33.439Z,2.37
2022-11-21T18:57:36.338Z,2.10
2022-11-21T19:00:39.237Z,2.00
2022-11-21T19:03:42.761Z,2.17
2022-11-21T19:06:47.010Z,2.37
2022-11-21T19:09:49.915Z,3.33
2022-11-21T19:12:52.907Z,3.80
2022-11-21T19:15:55.820Z,3.87
2022-11-21T19:22:23.197Z,3.00
2022-11-21T19:25:26.096Z,3.47
2022-11-21T19:28:30.200Z,2.50
2022-11-21T19:31:33.108Z,2.30
2022-11-21T19:34:36.076Z,2.60
2022-11-21T19:37:40.383Z,1.97
2022-11-21T19:40:57.282Z,2.57
2022-11-21T19:44:01.388Z,2.33
2022-11-21T19:47:04.568Z,2.03
2022-11-21T19:50:08.321Z,2.43
2022-11-21T19:53:12.621Z,2.43
2022-11-21T19:56:17.496Z,2.30
2022-11-21T19:59:20.514Z,2.20
2022-11-21T20:02:23.942Z,2.10
2022-11-21T20:05:26.850Z,2.57
2022-11-21T20:08:31.130Z,2.77
2022-11-21T20:11:34.520Z,3.03
2022-11-21T20:14:37.445Z,2.20
2022-11-21T20:17:40.396Z,1.90
2022-11-21T20:20:43.314Z,1.97
2022-11-21T20:23:48.065Z,2.30
2022-11-21T20:26:51.039Z,2.73
2022-11-21T20:29:53.916Z,2.07
2022-11-21T20:32:56.837Z,2.53
2022-11-21T20:36:04.434Z,2.23
2022-11-21T20:39:13.452Z,2.73
2022-11-21T20:42:16.353Z,3.33
2022-11-21T20:46:07.024Z,3.23
2022-11-21T20:48:42.170Z,3.00
2022-11-21T20:55:10.745Z,3.33
2022-11-21T20:58:14.187Z,3.37
2022-11-21T21:01:19.894Z,3.00
2022-11-21T21:04:22.832Z,3.33
2022-11-21T21:07:25.764Z,3.10
2022-11-21T21:10:45.980Z,2.40
2022-11-21T21:13:53.293Z,3.20
2022-11-21T21:16:56.233Z,3.57
2022-11-21T21:19:59.129Z,4.00
2022-11-21T21:23:02.117Z,4.03
2022-11-21T21:26:12.157Z,3.57
2022-11-21T21:29:18.107Z,3.07
2022-11-21T21:32:21.009Z,2.70
2022-11-21T21:35:23.918Z,2.90
2022-11-21T21:38:26.822Z,3.17
2022-11-21T21:41:33.013Z,3.17
2022-11-21T21:44:36.234Z,3.43
2022-11-21T21:47:39.343Z,3.20
2022-11-21T21:50:42.289Z,2.90
2022-11-21T21:53:46.480Z,2.60
2022-11-21T21:56:51.512Z,2.20
2022-11-21T21:59:54.383Z,2.63
2022-11-21T22:02:57.275Z,2.07
2022-11-21T22:06:02.614Z,2.03
2022-11-21T22:09:05.650Z,2.30
2022-11-21T22:12:10.561Z,2.23
2022-11-21T22:15:13.529Z,2.17
2022-11-21T22:18:16.437Z,2.40
2022-11-21T22:21:21.061Z,2.40
2022-11-21T22:24:26.091Z,2.43
2022-11-21T22:27:32.685Z,2.40
2022-11-21T22:30:35.717Z,1.77
2022-11-21T22:33:40.055Z,2.77
2022-11-21T22:36:43.406Z,2.47
2022-11-21T22:39:46.301Z,2.80
2022-11-21T22:42:50.560Z,1.97
2022-11-21T22:45:53.427Z,2.00
2022-11-21T22:48:56.357Z,2.87
2022-11-21T22:51:59.258Z,2.97
2022-11-21T22:55:02.168Z,2.80
2022-11-21T22:58:06.682Z,2.40
2022-11-21T23:01:12.098Z,2.33
2022-11-21T23:04:17.810Z,2.57
2022-11-21T23:07:21.067Z,1.90
2022-11-21T23:10:24.017Z,2.30
2022-11-21T23:13:28.289Z,2.97
2022-11-21T23:16:31.474Z,2.27
2022-11-21T23:19:34.360Z,2.53
2022-11-21T23:22:37.243Z,2.67
2022-11-21T23:25:40.192Z,2.47
2022-11-21T23:28:44.474Z,2.17
2022-11-21T23:31:47.368Z,3.23
2022-11-21T23:34:50.264Z,2.90
2022-11-21T23:37:53.143Z,3.50
2022-11-21T23:40:56.304Z,2.87
2022-11-21T23:44:00.860Z,2.60
2022-11-21T23:47:03.840Z,2.47
2022-11-21T23:50:07.785Z,2.63
2022-11-21T23:53:10.700Z,2.87
2022-11-21T23:56:13.851Z,3.30
2022-11-21T23:59:18.084Z,2.17
